LBA weather

Leeds Bradford Airport
Leeds, England, United Kingdom

Public forecast

Using degrees Celsius for public forecast. Weather courtesy of forecast.io.

METAR (pilot weather report)

Retrieved 2019/03/23 09:50 UTC (16 minutes ago):

EGNM 230950Z 30010KT 260V330 9999 FEW017 06/02 Q1032

TAF (pilot weather forecast)

Retrieved 2019/03/23 06:00 UTC (4 hours ago):

TAF EGNM 230500Z 2306/2406 30005KT 9999 SCT025 PROB30 TEMPO 2400/2406 6000